Terminal Aerodrome Forecast
Issued by NWS

Home | Current Version | Previous Version | Text Only | Print | Product List | Glossary Off
Versions: 1 2 3 4 5 6 7 8 9 10 11 12 13

000
FTUS45 KGGW 042323
TAFGDV
TAF
KGDV 042323Z 0500/0524 19007KT P6SM BKN090
     FM050300 21006KT P6SM VCSH BKN035
     FM050600 23007KT P6SM BKN040
     FM050900 28015KT P6SM VCSH BKN020
     FM051200 29016KT 3SM -SN OVC015
     FM051800 30016G24KT P6SM OVC010=

USA.gov is the U.S. government's official web portal to all federal, state and local government web resources and services.